PGD weather

Charlotte County Airport
Punta Gorda, Florida, United States

Public forecast

Using degrees Fahrenheit for public forecast. Weather courtesy of forecast.io.

Current aviation weather report (METAR) for Charlotte County Airport

Retrieved 2019/10/23 18:53 UTC (20 minutes ago):

KPGD 231853Z 07008KT 10SM FEW034 30/22 A3001 RMK AO2 SLP162 T03000217

Aviation forecast (TAF) for Charlotte County Airport

Retrieved 2019/10/23 18:42 UTC (31 minutes ago):

TAF KPGD 231739Z 2318/2418 05010KT P6SM SCT035 SCT250 FM240100 07008KT P6SM SCT040 SCT250 FM240500 06006KT P6SM BKN040 FM241400 10010KT P6SM SCT040 BKN250